sensor_id;sensor_type;location;lat;lon;timestamp;pressure;altitude;pressure_sealevel;temperature;humidity
17521;BME280;8878;-33.370;-70.552;2023-02-13T00:02:00;92009.06;;;26.78;34.31
17521;BME280;8878;-33.370;-70.552;2023-02-13T00:04:31;92011.69;;;26.41;34.81
17521;BME280;8878;-33.370;-70.552;2023-02-13T00:07:00;92015.13;;;25.63;37.16
17521;BME280;8878;-33.370;-70.552;2023-02-13T00:09:30;92027.91;;;25.43;37.68
17521;BME280;8878;-33.370;-70.552;2023-02-13T00:12:00;92029.81;;;25.43;37.56
17521;BME280;8878;-33.370;-70.552;2023-02-13T00:14:29;92034.78;;;25.86;37.15
17521;BME280;8878;-33.370;-70.552;2023-02-13T00:16:58;92031.91;;;25.98;36.97
17521;BME280;8878;-33.370;-70.552;2023-02-13T00:19:28;92038.28;;;25.87;36.80
17521;BME280;8878;-33.370;-70.552;2023-02-13T00:21:59;92041.31;;;26.08;36.96
17521;BME280;8878;-33.370;-70.552;2023-02-13T00:24:28;92039.50;;;25.66;37.91
17521;BME280;8878;-33.370;-70.552;2023-02-13T00:26:57;92060.34;;;25.47;38.49
17521;BME280;8878;-33.370;-70.552;2023-02-13T00:29:26;92055.53;;;25.79;37.97
17521;BME280;8878;-33.370;-70.552;2023-02-13T00:31:56;92056.47;;;25.90;37.93
17521;BME280;8878;-33.370;-70.552;2023-02-13T00:34:25;92064.13;;;25.84;37.36
17521;BME280;8878;-33.370;-70.552;2023-02-13T00:36:57;92069.16;;;25.21;38.95
17521;BME280;8878;-33.370;-70.552;2023-02-13T00:39:26;92069.94;;;25.44;39.05
17521;BME280;8878;-33.370;-70.552;2023-02-13T00:41:56;92076.84;;;25.61;38.27
17521;BME280;8878;-33.370;-70.552;2023-02-13T00:44:25;92078.16;;;25.93;38.04
17521;BME280;8878;-33.370;-70.552;2023-02-13T00:46:54;92078.91;;;25.48;38.09
17521;BME280;8878;-33.370;-70.552;2023-02-13T00:49:23;92082.69;;;25.86;37.54
17521;BME280;8878;-33.370;-70.552;2023-02-13T00:51:53;92089.38;;;25.72;37.83
17521;BME280;8878;-33.370;-70.552;2023-02-13T00:54:24;92087.88;;;25.75;37.91
17521;BME280;8878;-33.370;-70.552;2023-02-13T00:56:54;92093.09;;;25.87;37.99
17521;BME280;8878;-33.370;-70.552;2023-02-13T00:59:23;92094.50;;;26.00;37.94
17521;BME280;8878;-33.370;-70.552;2023-02-13T01:01:53;92093.13;;;25.45;38.63
17521;BME280;8878;-33.370;-70.552;2023-02-13T01:04:22;92087.84;;;25.10;39.34
17521;BME280;8878;-33.370;-70.552;2023-02-13T01:06:51;92095.22;;;25.32;39.41
17521;BME280;8878;-33.370;-70.552;2023-02-13T01:09:21;92104.53;;;25.77;39.34
17521;BME280;8878;-33.370;-70.552;2023-02-13T01:11:52;92094.50;;;26.00;38.15
17521;BME280;8878;-33.370;-70.552;2023-02-13T01:14:22;92107.38;;;26.10;38.57
17521;BME280;8878;-33.370;-70.552;2023-02-13T01:16:51;92107.16;;;26.19;38.15
17521;BME280;8878;-33.370;-70.552;2023-02-13T01:19:21;92104.38;;;26.16;38.58
17521;BME280;8878;-33.370;-70.552;2023-02-13T01:21:50;92105.25;;;25.97;38.69
17521;BME280;8878;-33.370;-70.552;2023-02-13T01:24:19;92119.00;;;25.88;40.30
17521;BME280;8878;-33.370;-70.552;2023-02-13T01:26:49;92112.63;;;25.77;40.00
17521;BME280;8878;-33.370;-70.552;2023-02-13T01:29:20;92104.09;;;25.75;40.13
17521;BME280;8878;-33.370;-70.552;2023-02-13T01:31:49;92098.34;;;25.77;39.81
17521;BME280;8878;-33.370;-70.552;2023-02-13T01:34:18;92104.84;;;25.53;39.75
17521;BME280;8878;-33.370;-70.552;2023-02-13T01:36:48;92112.09;;;25.49;39.40
17521;BME280;8878;-33.370;-70.552;2023-02-13T01:39:17;92112.47;;;25.47;39.93
17521;BME280;8878;-33.370;-70.552;2023-02-13T01:41:47;92104.06;;;25.52;40.03
17521;BME280;8878;-33.370;-70.552;2023-02-13T01:44:50;92114.84;;;25.52;40.18
17521;BME280;8878;-33.370;-70.552;2023-02-13T01:47:24;92113.47;;;25.39;40.23
17521;BME280;8878;-33.370;-70.552;2023-02-13T01:50:03;92115.19;;;25.28;39.65
17521;BME280;8878;-33.370;-70.552;2023-02-13T01:52:36;92117.16;;;25.31;39.87
17521;BME280;8878;-33.370;-70.552;2023-02-13T01:55:06;92112.69;;;25.39;39.68
17521;BME280;8878;-33.370;-70.552;2023-02-13T01:57:38;92098.00;;;25.36;39.93
17521;BME280;8878;-33.370;-70.552;2023-02-13T02:00:13;92105.38;;;25.20;40.55
17521;BME280;8878;-33.370;-70.552;2023-02-13T02:02:50;92108.53;;;25.22;41.63
17521;BME280;8878;-33.370;-70.552;2023-02-13T02:05:24;92110.81;;;25.01;41.04
17521;BME280;8878;-33.370;-70.552;2023-02-13T02:07:57;92107.31;;;25.00;41.26
17521;BME280;8878;-33.370;-70.552;2023-02-13T02:10:29;92097.44;;;25.08;41.59
17521;BME280;8878;-33.370;-70.552;2023-02-13T02:13:05;92106.72;;;25.10;42.19
17521;BME280;8878;-33.370;-70.552;2023-02-13T02:15:37;92099.06;;;25.12;41.99
17521;BME280;8878;-33.370;-70.552;2023-02-13T02:18:12;92106.69;;;25.07;41.02
17521;BME280;8878;-33.370;-70.552;2023-02-13T02:21:14;92098.31;;;24.92;41.54
17521;BME280;8878;-33.370;-70.552;2023-02-13T02:24:16;92094.06;;;24.76;41.54
17521;BME280;8878;-33.370;-70.552;2023-02-13T02:33:23;92080.38;;;24.65;42.09
17521;BME280;8878;-33.370;-70.552;2023-02-13T02:36:04;92083.75;;;24.62;42.23
17521;BME280;8878;-33.370;-70.552;2023-02-13T02:38:51;92081.22;;;24.69;41.74
17521;BME280;8878;-33.370;-70.552;2023-02-13T02:41:34;92080.09;;;24.70;43.29
17521;BME280;8878;-33.370;-70.552;2023-02-13T02:44:30;92076.50;;;24.66;42.60
17521;BME280;8878;-33.370;-70.552;2023-02-13T02:47:09;92073.88;;;24.50;42.36
17521;BME280;8878;-33.370;-70.552;2023-02-13T02:50:11;92074.06;;;24.23;43.40
17521;BME280;8878;-33.370;-70.552;2023-02-13T02:52:53;92067.31;;;24.32;43.63
17521;BME280;8878;-33.370;-70.552;2023-02-13T02:55:34;92059.50;;;24.11;43.27
17521;BME280;8878;-33.370;-70.552;2023-02-13T02:58:10;92060.88;;;23.86;44.08
17521;BME280;8878;-33.370;-70.552;2023-02-13T03:00:59;92060.94;;;23.90;43.87
17521;BME280;8878;-33.370;-70.552;2023-02-13T03:03:46;92057.22;;;23.94;43.88
17521;BME280;8878;-33.370;-70.552;2023-02-13T03:06:37;92049.00;;;24.06;45.51
17521;BME280;8878;-33.370;-70.552;2023-02-13T03:09:13;92047.34;;;24.02;44.29
17521;BME280;8878;-33.370;-70.552;2023-02-13T03:12:00;92049.94;;;24.14;44.36
17521;BME280;8878;-33.370;-70.552;2023-02-13T03:14:46;92049.66;;;24.19;44.24
17521;BME280;8878;-33.370;-70.552;2023-02-13T03:17:16;92048.63;;;24.24;45.12
17521;BME280;8878;-33.370;-70.552;2023-02-13T03:20:22;92044.56;;;24.14;45.71
17521;BME280;8878;-33.370;-70.552;2023-02-13T03:23:27;92047.00;;;24.03;46.51
17521;BME280;8878;-33.370;-70.552;2023-02-13T03:26:37;92048.75;;;23.96;46.63
17521;BME280;8878;-33.370;-70.552;2023-02-13T03:29:24;92054.22;;;23.99;45.64
17521;BME280;8878;-33.370;-70.552;2023-02-13T03:32:20;92060.88;;;23.86;44.17
17521;BME280;8878;-33.370;-70.552;2023-02-13T03:34:59;92052.06;;;23.89;44.52
17521;BME280;8878;-33.370;-70.552;2023-02-13T03:37:50;92056.25;;;23.87;46.00
17521;BME280;8878;-33.370;-70.552;2023-02-13T03:40:28;92050.94;;;23.90;45.96
17521;BME280;8878;-33.370;-70.552;2023-02-13T03:43:07;92051.91;;;23.82;45.88
17521;BME280;8878;-33.370;-70.552;2023-02-13T03:45:41;92053.19;;;23.88;44.48
17521;BME280;8878;-33.370;-70.552;2023-02-13T03:48:26;92046.16;;;23.84;45.72
17521;BME280;8878;-33.370;-70.552;2023-02-13T03:51:17;92050.78;;;23.52;46.65
17521;BME280;8878;-33.370;-70.552;2023-02-13T03:53:50;92046.28;;;23.56;45.31
17521;BME280;8878;-33.370;-70.552;2023-02-13T03:56:26;92042.44;;;23.57;46.02
17521;BME280;8878;-33.370;-70.552;2023-02-13T03:59:19;92037.41;;;23.55;47.22
17521;BME280;8878;-33.370;-70.552;2023-02-13T04:01:57;92028.03;;;23.49;47.46
17521;BME280;8878;-33.370;-70.552;2023-02-13T04:04:33;92033.41;;;23.49;47.80
17521;BME280;8878;-33.370;-70.552;2023-02-13T04:07:07;92024.56;;;23.49;47.09
17521;BME280;8878;-33.370;-70.552;2023-02-13T04:09:40;92018.28;;;23.45;46.37
17521;BME280;8878;-33.370;-70.552;2023-02-13T04:12:17;92017.38;;;23.09;47.33
17521;BME280;8878;-33.370;-70.552;2023-02-13T04:14:54;92016.44;;;23.01;47.26
17521;BME280;8878;-33.370;-70.552;2023-02-13T04:17:31;92015.41;;;23.22;46.75
17521;BME280;8878;-33.370;-70.552;2023-02-13T04:20:02;92008.72;;;23.16;47.03
17521;BME280;8878;-33.370;-70.552;2023-02-13T04:22:31;92011.94;;;23.21;46.35
17521;BME280;8878;-33.370;-70.552;2023-02-13T04:25:01;91987.69;;;23.06;46.25
17521;BME280;8878;-33.370;-70.552;2023-02-13T04:27:32;91992.00;;;22.66;46.67
17521;BME280;8878;-33.370;-70.552;2023-02-13T04:30:02;91981.56;;;22.49;47.05
17521;BME280;8878;-33.370;-70.552;2023-02-13T04:32:31;91981.56;;;22.49;47.65
17521;BME280;8878;-33.370;-70.552;2023-02-13T04:35:01;91976.06;;;22.46;47.17
17521;BME280;8878;-33.370;-70.552;2023-02-13T04:37:30;91980.00;;;22.48;47.17
17521;BME280;8878;-33.370;-70.552;2023-02-13T04:39:59;91988.44;;;22.62;46.61
17521;BME280;8878;-33.370;-70.552;2023-02-13T04:42:29;91980.31;;;23.02;46.08
17521;BME280;8878;-33.370;-70.552;2023-02-13T04:45:00;91980.13;;;22.95;45.99
17521;BME280;8878;-33.370;-70.552;2023-02-13T04:47:29;91978.16;;;23.08;45.28
17521;BME280;8878;-33.370;-70.552;2023-02-13T04:49:58;91979.81;;;23.44;45.85
17521;BME280;8878;-33.370;-70.552;2023-02-13T04:52:27;91977.72;;;23.06;44.65
17521;BME280;8878;-33.370;-70.552;2023-02-13T04:54:57;91977.59;;;23.02;44.93
17521;BME280;8878;-33.370;-70.552;2023-02-13T04:57:27;91973.59;;;22.81;44.87
17521;BME280;8878;-33.370;-70.552;2023-02-13T04:59:58;91974.84;;;22.99;44.44
17521;BME280;8878;-33.370;-70.552;2023-02-13T05:02:27;91976.44;;;23.16;45.16
17521;BME280;8878;-33.370;-70.552;2023-02-13T05:04:57;91968.53;;;23.23;45.36
17521;BME280;8878;-33.370;-70.552;2023-02-13T05:07:26;91977.88;;;23.13;45.25
17521;BME280;8878;-33.370;-70.552;2023-02-13T05:09:56;91963.31;;;22.71;45.14
17521;BME280;8878;-33.370;-70.552;2023-02-13T05:12:25;91974.16;;;22.58;45.71
17521;BME280;8878;-33.370;-70.552;2023-02-13T05:14:54;91960.13;;;22.37;46.27
17521;BME280;8878;-33.370;-70.552;2023-02-13T05:17:25;91968.22;;;22.25;46.33
17521;BME280;8878;-33.370;-70.552;2023-02-13T05:19:55;91961.47;;;22.59;46.32
17521;BME280;8878;-33.370;-70.552;2023-02-13T05:22:25;91951.84;;;22.86;45.68
17521;BME280;8878;-33.370;-70.552;2023-02-13T05:25:10;91947.47;;;22.81;45.62
17521;BME280;8878;-33.370;-70.552;2023-02-13T05:27:40;91948.69;;;22.84;45.47
17521;BME280;8878;-33.370;-70.552;2023-02-13T05:30:10;91948.66;;;22.40;46.68
17521;BME280;8878;-33.370;-70.552;2023-02-13T05:32:40;91946.50;;;22.18;47.22
17521;BME280;8878;-33.370;-70.552;2023-02-13T05:35:10;91952.84;;;21.98;47.66
17521;BME280;8878;-33.370;-70.552;2023-02-13T05:37:39;91950.38;;;22.05;47.19
17521;BME280;8878;-33.370;-70.552;2023-02-13T05:40:10;91944.38;;;22.51;46.40
17521;BME280;8878;-33.370;-70.552;2023-02-13T05:42:40;91940.16;;;22.66;47.81
17521;BME280;8878;-33.370;-70.552;2023-02-13T05:45:10;91940.38;;;22.73;47.29
17521;BME280;8878;-33.370;-70.552;2023-02-13T05:47:41;91935.25;;;22.84;47.00
17521;BME280;8878;-33.370;-70.552;2023-02-13T05:50:10;91926.25;;;22.92;47.42
17521;BME280;8878;-33.370;-70.552;2023-02-13T05:52:39;91930.84;;;22.91;47.79
17521;BME280;8878;-33.370;-70.552;2023-02-13T05:55:09;91917.38;;;22.76;47.58
17521;BME280;8878;-33.370;-70.552;2023-02-13T05:57:38;91914.81;;;22.67;47.71
17521;BME280;8878;-33.370;-70.552;2023-02-13T06:00:08;91914.63;;;22.60;48.49
17521;BME280;8878;-33.370;-70.552;2023-02-13T06:02:39;91902.91;;;22.52;48.96
17521;BME280;8878;-33.370;-70.552;2023-02-13T06:05:09;91917.13;;;22.37;48.99
17521;BME280;8878;-33.370;-70.552;2023-02-13T06:07:38;91896.28;;;22.34;49.07
17521;BME280;8878;-33.370;-70.552;2023-02-13T06:10:08;91902.25;;;22.27;49.58
17521;BME280;8878;-33.370;-70.552;2023-02-13T06:12:37;91897.69;;;22.00;49.28
17521;BME280;8878;-33.370;-70.552;2023-02-13T06:15:07;91888.84;;;21.87;49.81
17521;BME280;8878;-33.370;-70.552;2023-02-13T06:17:36;91891.47;;;21.72;50.08
17521;BME280;8878;-33.370;-70.552;2023-02-13T06:20:09;91888.06;;;21.87;50.43
17521;BME280;8878;-33.370;-70.552;2023-02-13T06:22:40;91886.97;;;21.76;50.69
17521;BME280;8878;-33.370;-70.552;2023-02-13T06:25:09;91878.63;;;21.65;50.81
17521;BME280;8878;-33.370;-70.552;2023-02-13T06:27:39;91870.91;;;21.64;50.70
17521;BME280;8878;-33.370;-70.552;2023-02-13T06:30:09;91880.66;;;21.56;50.24
17521;BME280;8878;-33.370;-70.552;2023-02-13T06:32:38;91868.91;;;21.48;50.28
17521;BME280;8878;-33.370;-70.552;2023-02-13T06:35:09;91868.13;;;21.48;50.15
17521;BME280;8878;-33.370;-70.552;2023-02-13T06:37:40;91862.53;;;21.53;50.32
17521;BME280;8878;-33.370;-70.552;2023-02-13T06:40:11;91860.56;;;21.38;49.96
17521;BME280;8878;-33.370;-70.552;2023-02-13T06:42:42;91855.22;;;21.26;50.34
17521;BME280;8878;-33.370;-70.552;2023-02-13T06:45:11;91848.47;;;21.44;50.95
17521;BME280;8878;-33.370;-70.552;2023-02-13T06:47:42;91844.09;;;21.52;51.85
17521;BME280;8878;-33.370;-70.552;2023-02-13T06:50:15;91843.72;;;21.65;51.30
17521;BME280;8878;-33.370;-70.552;2023-02-13T06:52:49;91841.66;;;21.74;50.48
17521;BME280;8878;-33.370;-70.552;2023-02-13T06:55:19;91836.19;;;21.71;51.37
17521;BME280;8878;-33.370;-70.552;2023-02-13T06:57:48;91835.88;;;21.72;51.05
17521;BME280;8878;-33.370;-70.552;2023-02-13T07:00:19;91832.97;;;21.65;51.41
17521;BME280;8878;-33.370;-70.552;2023-02-13T07:02:48;91833.97;;;21.73;51.36
17521;BME280;8878;-33.370;-70.552;2023-02-13T07:05:19;91834.16;;;21.80;51.07
17521;BME280;8878;-33.370;-70.552;2023-02-13T07:07:49;91832.00;;;21.85;50.33
17521;BME280;8878;-33.370;-70.552;2023-02-13T07:10:18;91835.38;;;21.82;49.97
17521;BME280;8878;-33.370;-70.552;2023-02-13T07:12:47;91828.88;;;21.83;50.85
17521;BME280;8878;-33.370;-70.552;2023-02-13T07:15:17;91835.53;;;21.74;51.05
17521;BME280;8878;-33.370;-70.552;2023-02-13T07:17:46;91834.56;;;21.66;50.66
17521;BME280;8878;-33.370;-70.552;2023-02-13T07:20:16;91838.91;;;21.31;50.88
17521;BME280;8878;-33.370;-70.552;2023-02-13T07:22:47;91836.88;;;21.28;50.74
17521;BME280;8878;-33.370;-70.552;2023-02-13T07:25:17;91837.09;;;21.10;50.63
17521;BME280;8878;-33.370;-70.552;2023-02-13T07:27:46;91835.09;;;21.07;50.44
17521;BME280;8878;-33.370;-70.552;2023-02-13T07:30:15;91838.22;;;20.97;50.35
17521;BME280;8878;-33.370;-70.552;2023-02-13T07:32:46;91820.78;;;21.03;50.46
17521;BME280;8878;-33.370;-70.552;2023-02-13T07:35:15;91814.28;;;21.29;51.23
17521;BME280;8878;-33.370;-70.552;2023-02-13T07:37:46;91827.59;;;21.37;51.08
17521;BME280;8878;-33.370;-70.552;2023-02-13T07:40:16;91825.69;;;21.38;50.96
17521;BME280;8878;-33.370;-70.552;2023-02-13T07:42:45;91821.81;;;21.23;51.20
17521;BME280;8878;-33.370;-70.552;2023-02-13T07:45:15;91825.69;;;21.26;51.03
17521;BME280;8878;-33.370;-70.552;2023-02-13T07:47:44;91812.03;;;21.43;49.87
17521;BME280;8878;-33.370;-70.552;2023-02-13T07:50:13;91819.88;;;21.11;50.51
17521;BME280;8878;-33.370;-70.552;2023-02-13T07:52:42;91810.72;;;21.13;50.79
17521;BME280;8878;-33.370;-70.552;2023-02-13T07:55:13;91820.25;;;21.22;50.43
17521;BME280;8878;-33.370;-70.552;2023-02-13T07:57:43;91816.31;;;21.20;50.75
17521;BME280;8878;-33.370;-70.552;2023-02-13T08:00:13;91807.81;;;21.05;51.50
17521;BME280;8878;-33.370;-70.552;2023-02-13T08:02:42;91812.84;;;21.07;51.32
17521;BME280;8878;-33.370;-70.552;2023-02-13T08:05:12;91807.50;;;21.07;51.50
17521;BME280;8878;-33.370;-70.552;2023-02-13T08:07:42;91809.19;;;20.63;52.14
17521;BME280;8878;-33.370;-70.552;2023-02-13T08:10:14;91804.94;;;20.62;51.98
17521;BME280;8878;-33.370;-70.552;2023-02-13T08:13:00;91808.59;;;20.33;51.60
17521;BME280;8878;-33.370;-70.552;2023-02-13T08:15:30;91804.16;;;20.49;51.80
17521;BME280;8878;-33.370;-70.552;2023-02-13T08:17:59;91807.50;;;20.83;52.25
17521;BME280;8878;-33.370;-70.552;2023-02-13T08:20:29;91806.94;;;20.89;52.89
17521;BME280;8878;-33.370;-70.552;2023-02-13T08:23:02;91801.13;;;20.99;52.03
17521;BME280;8878;-33.370;-70.552;2023-02-13T08:25:33;91797.34;;;21.00;51.52
17521;BME280;8878;-33.370;-70.552;2023-02-13T08:28:02;91794.88;;;20.95;52.46
17521;BME280;8878;-33.370;-70.552;2023-02-13T08:30:33;91799.78;;;20.93;52.32
17521;BME280;8878;-33.370;-70.552;2023-02-13T08:33:02;91795.47;;;20.89;51.12
17521;BME280;8878;-33.370;-70.552;2023-02-13T08:35:32;91787.19;;;20.94;50.94
17521;BME280;8878;-33.370;-70.552;2023-02-13T08:38:05;91803.50;;;20.77;51.01
17521;BME280;8878;-33.370;-70.552;2023-02-13T08:40:37;91798.13;;;20.77;51.31
17521;BME280;8878;-33.370;-70.552;2023-02-13T08:43:06;91794.78;;;20.80;50.93
17521;BME280;8878;-33.370;-70.552;2023-02-13T08:45:35;91803.84;;;20.87;50.37
17521;BME280;8878;-33.370;-70.552;2023-02-13T08:48:05;91801.91;;;20.76;50.22
17521;BME280;8878;-33.370;-70.552;2023-02-13T08:50:34;91801.13;;;20.75;50.35
17521;BME280;8878;-33.370;-70.552;2023-02-13T08:53:03;91795.47;;;20.89;49.87
17521;BME280;8878;-33.370;-70.552;2023-02-13T08:55:33;91799.34;;;20.91;50.07
17521;BME280;8878;-33.370;-70.552;2023-02-13T08:58:04;91801.25;;;20.91;50.47
17521;BME280;8878;-33.370;-70.552;2023-02-13T09:00:36;91803.34;;;20.97;50.20
17521;BME280;8878;-33.370;-70.552;2023-02-13T09:03:06;91806.19;;;20.89;50.30
17521;BME280;8878;-33.370;-70.552;2023-02-13T09:05:35;91805.03;;;20.53;50.07
17521;BME280;8878;-33.370;-70.552;2023-02-13T09:08:05;91803.28;;;20.57;50.19
17521;BME280;8878;-33.370;-70.552;2023-02-13T09:10:38;91803.28;;;20.57;50.34
17521;BME280;8878;-33.370;-70.552;2023-02-13T09:13:11;91793.78;;;20.60;49.96
17521;BME280;8878;-33.370;-70.552;2023-02-13T09:15:40;91796.25;;;20.53;49.60
17521;BME280;8878;-33.370;-70.552;2023-02-13T09:18:11;91802.81;;;20.55;49.28
17521;BME280;8878;-33.370;-70.552;2023-02-13T09:20:40;91793.13;;;20.51;49.52
17521;BME280;8878;-33.370;-70.552;2023-02-13T09:23:09;91798.69;;;20.58;49.72
17521;BME280;8878;-33.370;-70.552;2023-02-13T09:25:39;91794.66;;;20.76;49.49
17521;BME280;8878;-33.370;-70.552;2023-02-13T09:28:13;91794.22;;;20.86;49.73
17521;BME280;8878;-33.370;-70.552;2023-02-13T09:30:48;91802.81;;;20.92;49.64
17521;BME280;8878;-33.370;-70.552;2023-02-13T09:33:17;91803.25;;;20.94;49.80
17521;BME280;8878;-33.370;-70.552;2023-02-13T09:35:48;91796.22;;;21.01;49.20
17521;BME280;8878;-33.370;-70.552;2023-02-13T09:38:17;91801.34;;;21.06;48.86
17521;BME280;8878;-33.370;-70.552;2023-02-13T09:40:50;91790.66;;;20.70;49.40
17521;BME280;8878;-33.370;-70.552;2023-02-13T09:43:28;91803.81;;;20.63;49.53
17521;BME280;8878;-33.370;-70.552;2023-02-13T09:45:59;91794.53;;;20.60;49.82
17521;BME280;8878;-33.370;-70.552;2023-02-13T09:48:34;91796.69;;;20.55;50.15
17521;BME280;8878;-33.370;-70.552;2023-02-13T09:51:05;91790.66;;;20.46;49.46
17521;BME280;8878;-33.370;-70.552;2023-02-13T09:53:34;91792.75;;;20.40;49.86
17521;BME280;8878;-33.370;-70.552;2023-02-13T09:56:08;91795.78;;;20.51;49.40
17521;BME280;8878;-33.370;-70.552;2023-02-13T09:58:46;91794.66;;;20.40;49.63
17521;BME280;8878;-33.370;-70.552;2023-02-13T10:01:24;91789.50;;;20.22;49.40
17521;BME280;8878;-33.370;-70.552;2023-02-13T10:04:16;91795.09;;;20.29;49.30
17521;BME280;8878;-33.370;-70.552;2023-02-13T10:06:54;91798.53;;;20.30;49.28
17521;BME280;8878;-33.370;-70.552;2023-02-13T10:09:31;91801.25;;;20.54;49.22
17521;BME280;8878;-33.370;-70.552;2023-02-13T10:12:19;91798.03;;;20.49;49.61
17521;BME280;8878;-33.370;-70.552;2023-02-13T10:15:01;91799.16;;;20.60;49.70
17521;BME280;8878;-33.370;-70.552;2023-02-13T10:17:39;91811.88;;;20.39;49.28
17521;BME280;8878;-33.370;-70.552;2023-02-13T10:20:24;91821.72;;;20.26;49.29
17521;BME280;8878;-33.370;-70.552;2023-02-13T10:22:59;91821.03;;;20.50;49.24
17521;BME280;8878;-33.370;-70.552;2023-02-13T10:25:41;91825.03;;;20.56;49.41
17521;BME280;8878;-33.370;-70.552;2023-02-13T10:28:16;91828.31;;;20.16;49.76
17521;BME280;8878;-33.370;-70.552;2023-02-13T10:30:51;91831.00;;;20.16;50.15
17521;BME280;8878;-33.370;-70.552;2023-02-13T10:33:24;91829.94;;;20.42;50.02
17521;BME280;8878;-33.370;-70.552;2023-02-13T10:36:00;91827.72;;;20.44;50.88
17521;BME280;8878;-33.370;-70.552;2023-02-13T10:38:31;91831.50;;;20.55;50.64
17521;BME280;8878;-33.370;-70.552;2023-02-13T10:41:05;91842.69;;;20.57;50.81
17521;BME280;8878;-33.370;-70.552;2023-02-13T10:43:50;91836.44;;;20.53;51.51
17521;BME280;8878;-33.370;-70.552;2023-02-13T10:46:32;91842.00;;;20.48;51.23
17521;BME280;8878;-33.370;-70.552;2023-02-13T10:52:06;91837.75;;;20.47;50.44
17521;BME280;8878;-33.370;-70.552;2023-02-13T10:54:56;91845.81;;;20.59;50.85
17521;BME280;8878;-33.370;-70.552;2023-02-13T10:57:34;91848.59;;;20.62;51.48
17521;BME280;8878;-33.370;-70.552;2023-02-13T11:00:14;91846.72;;;20.75;51.44
17521;BME280;8878;-33.370;-70.552;2023-02-13T11:02:48;91855.09;;;20.74;51.63
17521;BME280;8878;-33.370;-70.552;2023-02-13T11:05:19;91849.50;;;20.79;51.39
17521;BME280;8878;-33.370;-70.552;2023-02-13T11:07:49;91854.09;;;20.90;51.20
17521;BME280;8878;-33.370;-70.552;2023-02-13T11:10:20;91852.22;;;21.03;50.60
17521;BME280;8878;-33.370;-70.552;2023-02-13T11:12:50;91846.94;;;21.06;50.21
17521;BME280;8878;-33.370;-70.552;2023-02-13T11:15:23;91850.53;;;21.23;50.07
17521;BME280;8878;-33.370;-70.552;2023-02-13T11:17:56;91850.50;;;21.35;49.86
17521;BME280;8878;-33.370;-70.552;2023-02-13T11:20:33;91854.06;;;21.39;49.67
17521;BME280;8878;-33.370;-70.552;2023-02-13T11:23:32;91857.94;;;21.54;49.55
17521;BME280;8878;-33.370;-70.552;2023-02-13T11:26:04;91862.28;;;21.70;48.67
17521;BME280;8878;-33.370;-70.552;2023-02-13T11:28:37;91859.34;;;21.75;47.86
17521;BME280;8878;-33.370;-70.552;2023-02-13T11:31:21;91861.84;;;21.56;48.12
17521;BME280;8878;-33.370;-70.552;2023-02-13T11:33:53;91858.09;;;21.33;47.92
17521;BME280;8878;-33.370;-70.552;2023-02-13T11:36:29;91865.72;;;21.31;48.28
17521;BME280;8878;-33.370;-70.552;2023-02-13T11:39:01;91871.75;;;21.16;47.87
17521;BME280;8878;-33.370;-70.552;2023-02-13T11:41:38;91868.97;;;21.00;48.20
17521;BME280;8878;-33.370;-70.552;2023-02-13T11:44:21;91867.97;;;21.17;47.59
17521;BME280;8878;-33.370;-70.552;2023-02-13T11:46:53;91865.16;;;21.25;47.19
17521;BME280;8878;-33.370;-70.552;2023-02-13T11:49:25;91864.59;;;21.20;47.22
17521;BME280;8878;-33.370;-70.552;2023-02-13T11:51:57;91868.81;;;20.96;47.87
17521;BME280;8878;-33.370;-70.552;2023-02-13T11:54:30;91869.75;;;21.00;48.26
17521;BME280;8878;-33.370;-70.552;2023-02-13T11:57:01;91866.38;;;21.28;47.96
17521;BME280;8878;-33.370;-70.552;2023-02-13T11:59:37;91867.50;;;21.27;48.29
17521;BME280;8878;-33.370;-70.552;2023-02-13T12:02:17;91868.38;;;21.43;47.69
17521;BME280;8878;-33.370;-70.552;2023-02-13T12:04:49;91874.81;;;21.54;47.20
17521;BME280;8878;-33.370;-70.552;2023-02-13T12:07:22;91874.03;;;21.54;46.33
17521;BME280;8878;-33.370;-70.552;2023-02-13T12:09:58;91876.53;;;21.59;45.88
17521;BME280;8878;-33.370;-70.552;2023-02-13T12:12:33;91872.50;;;21.40;46.97
17521;BME280;8878;-33.370;-70.552;2023-02-13T12:15:15;91878.72;;;21.69;46.46
17521;BME280;8878;-33.370;-70.552;2023-02-13T12:17:48;91880.38;;;21.21;47.09
17521;BME280;8878;-33.370;-70.552;2023-02-13T12:20:24;91881.41;;;21.69;46.54
17521;BME280;8878;-33.370;-70.552;2023-02-13T12:23:02;91878.91;;;21.76;46.60
17521;BME280;8878;-33.370;-70.552;2023-02-13T12:25:56;91889.38;;;21.65;46.76
17521;BME280;8878;-33.370;-70.552;2023-02-13T12:28:45;91892.25;;;21.72;47.55
17521;BME280;8878;-33.370;-70.552;2023-02-13T12:31:38;91886.06;;;21.84;47.16
17521;BME280;8878;-33.370;-70.552;2023-02-13T12:34:38;91901.47;;;21.99;47.85
17521;BME280;8878;-33.370;-70.552;2023-02-13T12:37:23;91902.03;;;21.93;47.57
17521;BME280;8878;-33.370;-70.552;2023-02-13T12:40:13;91898.34;;;22.25;46.78
17521;BME280;8878;-33.370;-70.552;2023-02-13T12:43:02;91899.53;;;22.12;47.00
17521;BME280;8878;-33.370;-70.552;2023-02-13T12:45:39;91899.22;;;21.89;47.51
17521;BME280;8878;-33.370;-70.552;2023-02-13T12:48:18;91899.63;;;22.43;46.82
17521;BME280;8878;-33.370;-70.552;2023-02-13T12:51:03;91894.59;;;22.57;46.56
17521;BME280;8878;-33.370;-70.552;2023-02-13T12:53:55;91890.19;;;22.65;46.54
17521;BME280;8878;-33.370;-70.552;2023-02-13T12:56:42;91894.03;;;22.36;47.66
17521;BME280;8878;-33.370;-70.552;2023-02-13T12:59:18;91889.88;;;22.98;46.01
17521;BME280;8878;-33.370;-70.552;2023-02-13T13:02:04;91892.78;;;22.61;46.34
17521;BME280;8878;-33.370;-70.552;2023-02-13T13:04:53;91897.41;;;22.77;45.28
17521;BME280;8878;-33.370;-70.552;2023-02-13T13:07:48;91887.34;;;23.05;45.33
17521;BME280;8878;-33.370;-70.552;2023-02-13T13:10:42;91890.38;;;23.19;44.76
17521;BME280;8878;-33.370;-70.552;2023-02-13T13:13:25;91893.06;;;23.19;44.96
17521;BME280;8878;-33.370;-70.552;2023-02-13T13:16:05;91893.41;;;23.33;45.19
17521;BME280;8878;-33.370;-70.552;2023-02-13T13:18:44;91900.34;;;23.50;45.54
17521;BME280;8878;-33.370;-70.552;2023-02-13T13:21:26;91892.75;;;23.05;44.74
17521;BME280;8878;-33.370;-70.552;2023-02-13T13:24:02;91901.34;;;23.46;44.87
17521;BME280;8878;-33.370;-70.552;2023-02-13T13:26:39;91894.44;;;23.45;45.92
17521;BME280;8878;-33.370;-70.552;2023-02-13T13:29:13;91901.47;;;23.33;45.85